sensor_id;sensor_type;location;lat;lon;timestamp;pressure;altitude;pressure_sealevel;temperature;humidity
48644;BME280;34928;37.302;-121.984;2022-12-18T00:08:32;101012.0;;;26.28;21.62
48644;BME280;34928;37.302;-121.984;2022-12-18T00:18:37;101005.0;;;26.48;21.55
48644;BME280;34928;37.302;-121.984;2022-12-18T00:28:42;100999.0;;;26.19;21.50
48644;BME280;34928;37.302;-121.984;2022-12-18T00:38:47;100998.0;;;26.46;21.40
48644;BME280;34928;37.302;-121.984;2022-12-18T00:48:52;100992.0;;;26.48;21.27
48644;BME280;34928;37.302;-121.984;2022-12-18T00:58:57;101003.0;;;26.20;21.15
48644;BME280;34928;37.302;-121.984;2022-12-18T01:09:03;100999.0;;;26.19;21.12
48644;BME280;34928;37.302;-121.984;2022-12-18T01:19:07;101007.0;;;26.18;21.33
48644;BME280;34928;37.302;-121.984;2022-12-18T01:29:13;101012.0;;;26.14;21.27
48644;BME280;34928;37.302;-121.984;2022-12-18T01:39:17;101012.0;;;26.22;21.11
48644;BME280;34928;37.302;-121.984;2022-12-18T01:49:22;101015.0;;;26.09;21.13
48644;BME280;34928;37.302;-121.984;2022-12-18T01:59:28;101018.0;;;25.99;21.11
48644;BME280;34928;37.302;-121.984;2022-12-18T02:09:35;101016.0;;;25.94;21.08
48644;BME280;34928;37.302;-121.984;2022-12-18T02:19:53;101012.0;;;26.12;20.99
48644;BME280;34928;37.302;-121.984;2022-12-18T02:30:05;101009.0;;;25.96;21.09
48644;BME280;34928;37.302;-121.984;2022-12-18T02:40:14;101006.0;;;25.91;21.03
48644;BME280;34928;37.302;-121.984;2022-12-18T02:50:22;101016.0;;;25.46;21.08
48644;BME280;34928;37.302;-121.984;2022-12-18T03:00:37;101019.0;;;25.63;21.06
48644;BME280;34928;37.302;-121.984;2022-12-18T03:10:45;101020.0;;;25.11;21.14
48644;BME280;34928;37.302;-121.984;2022-12-18T03:20:55;101021.0;;;25.06;21.06
48644;BME280;34928;37.302;-121.984;2022-12-18T03:31:03;101014.0;;;24.96;21.03
48644;BME280;34928;37.302;-121.984;2022-12-18T03:41:14;101005.0;;;25.36;21.02
48644;BME280;34928;37.302;-121.984;2022-12-18T03:51:23;100996.0;;;25.21;21.04
48644;BME280;34928;37.302;-121.984;2022-12-18T04:01:31;100995.0;;;24.90;20.99
48644;BME280;34928;37.302;-121.984;2022-12-18T04:11:37;100996.0;;;24.94;21.05
48644;BME280;34928;37.302;-121.984;2022-12-18T04:21:42;100991.0;;;24.87;20.99
48644;BME280;34928;37.302;-121.984;2022-12-18T04:31:47;100987.0;;;24.72;21.03
48644;BME280;34928;37.302;-121.984;2022-12-18T04:41:52;100995.0;;;24.56;21.07
48644;BME280;34928;37.302;-121.984;2022-12-18T04:51:57;100999.0;;;24.44;21.05
48644;BME280;34928;37.302;-121.984;2022-12-18T05:02:03;100990.0;;;24.41;20.98
48644;BME280;34928;37.302;-121.984;2022-12-18T05:12:07;100998.0;;;24.57;20.91
48644;BME280;34928;37.302;-121.984;2022-12-18T05:22:12;100986.0;;;24.13;20.97
48644;BME280;34928;37.302;-121.984;2022-12-18T05:32:17;100985.0;;;23.99;20.98
48644;BME280;34928;37.302;-121.984;2022-12-18T05:42:22;100983.0;;;24.05;20.99
48644;BME280;34928;37.302;-121.984;2022-12-18T05:52:27;100992.0;;;23.92;20.99
48644;BME280;34928;37.302;-121.984;2022-12-18T06:02:32;100991.0;;;23.73;21.03
48644;BME280;34928;37.302;-121.984;2022-12-18T06:12:37;100992.0;;;23.90;21.00
48644;BME280;34928;37.302;-121.984;2022-12-18T06:22:42;100997.0;;;23.79;20.99
48644;BME280;34928;37.302;-121.984;2022-12-18T06:32:49;100995.0;;;23.76;20.91
48644;BME280;34928;37.302;-121.984;2022-12-18T06:42:52;100992.0;;;23.69;20.84
48644;BME280;34928;37.302;-121.984;2022-12-18T06:52:57;100997.0;;;23.53;20.87
48644;BME280;34928;37.302;-121.984;2022-12-18T07:03:02;101002.0;;;23.55;20.76
48644;BME280;34928;37.302;-121.984;2022-12-18T07:13:07;100994.0;;;23.37;20.81
48644;BME280;34928;37.302;-121.984;2022-12-18T07:23:12;100996.0;;;23.20;20.83
48644;BME280;34928;37.302;-121.984;2022-12-18T07:33:17;100991.0;;;23.48;20.88
48644;BME280;34928;37.302;-121.984;2022-12-18T07:43:23;100992.0;;;22.82;20.92
48644;BME280;34928;37.302;-121.984;2022-12-18T07:53:27;100988.0;;;22.88;20.98
48644;BME280;34928;37.302;-121.984;2022-12-18T08:03:32;100987.0;;;22.61;20.90
48644;BME280;34928;37.302;-121.984;2022-12-18T08:13:37;100976.0;;;22.70;20.93
48644;BME280;34928;37.302;-121.984;2022-12-18T08:23:42;100979.0;;;22.34;20.93
48644;BME280;34928;37.302;-121.984;2022-12-18T08:33:49;100969.0;;;22.77;20.87
48644;BME280;34928;37.302;-121.984;2022-12-18T08:43:52;100966.0;;;22.73;20.80
48644;BME280;34928;37.302;-121.984;2022-12-18T08:53:57;100974.0;;;22.54;20.85
48644;BME280;34928;37.302;-121.984;2022-12-18T09:04:02;100985.0;;;22.60;20.75
48644;BME280;34928;37.302;-121.984;2022-12-18T09:14:08;100972.0;;;22.36;20.84
48644;BME280;34928;37.302;-121.984;2022-12-18T09:24:13;100982.0;;;22.16;20.89
48644;BME280;34928;37.302;-121.984;2022-12-18T09:34:17;100994.0;;;22.30;20.90
48644;BME280;34928;37.302;-121.984;2022-12-18T09:44:26;100997.0;;;22.21;20.88
48644;BME280;34928;37.302;-121.984;2022-12-18T09:54:36;100996.0;;;21.84;20.88
48644;BME280;34928;37.302;-121.984;2022-12-18T10:04:42;101002.0;;;21.96;20.91
48644;BME280;34928;37.302;-121.984;2022-12-18T10:14:51;101001.0;;;21.61;20.92
48644;BME280;34928;37.302;-121.984;2022-12-18T10:25:02;101007.0;;;21.75;20.90
48644;BME280;34928;37.302;-121.984;2022-12-18T10:35:15;101012.0;;;21.63;20.92
48644;BME280;34928;37.302;-121.984;2022-12-18T10:45:22;101008.0;;;21.77;20.91
48644;BME280;34928;37.302;-121.984;2022-12-18T10:55:31;101020.0;;;21.33;20.99
48644;BME280;34928;37.302;-121.984;2022-12-18T11:05:38;101019.0;;;21.35;20.92
48644;BME280;34928;37.302;-121.984;2022-12-18T11:15:42;101013.0;;;21.44;20.93
48644;BME280;34928;37.302;-121.984;2022-12-18T11:25:54;101010.0;;;21.35;20.92
48644;BME280;34928;37.302;-121.984;2022-12-18T11:35:59;101018.0;;;21.20;20.96
48644;BME280;34928;37.302;-121.984;2022-12-18T11:46:10;101018.0;;;21.08;20.97
48644;BME280;34928;37.302;-121.984;2022-12-18T11:56:29;101020.0;;;21.05;20.90
48644;BME280;34928;37.302;-121.984;2022-12-18T12:06:41;101027.0;;;20.94;20.93
48644;BME280;34928;37.302;-121.984;2022-12-18T12:16:58;101016.0;;;20.83;20.95
48644;BME280;34928;37.302;-121.984;2022-12-18T12:27:13;101016.0;;;20.71;20.95
48644;BME280;34928;37.302;-121.984;2022-12-18T12:37:25;101014.0;;;20.80;20.81
48644;BME280;34928;37.302;-121.984;2022-12-18T12:47:35;101015.0;;;20.65;20.84
48644;BME280;34928;37.302;-121.984;2022-12-18T12:57:47;101023.0;;;20.55;20.86
48644;BME280;34928;37.302;-121.984;2022-12-18T13:08:01;101021.0;;;20.39;20.88
48644;BME280;34928;37.302;-121.984;2022-12-18T13:18:19;101018.0;;;20.35;20.84
48644;BME280;34928;37.302;-121.984;2022-12-18T13:28:26;101024.0;;;20.55;20.82
48644;BME280;34928;37.302;-121.984;2022-12-18T13:38:43;101015.0;;;20.60;20.87
48644;BME280;34928;37.302;-121.984;2022-12-18T13:48:56;101021.0;;;20.47;20.89
48644;BME280;34928;37.302;-121.984;2022-12-18T13:59:13;101022.0;;;20.14;20.89
48644;BME280;34928;37.302;-121.984;2022-12-18T14:09:26;101022.0;;;20.24;20.94
48644;BME280;34928;37.302;-121.984;2022-12-18T14:19:32;101013.0;;;20.24;20.85
48644;BME280;34928;37.302;-121.984;2022-12-18T14:29:43;101022.0;;;20.26;20.77
48644;BME280;34928;37.302;-121.984;2022-12-18T14:39:56;101021.0;;;19.88;20.79
48644;BME280;34928;37.302;-121.984;2022-12-18T14:50:02;101018.0;;;19.95;20.86
48644;BME280;34928;37.302;-121.984;2022-12-18T15:00:16;101026.0;;;19.94;20.80
48644;BME280;34928;37.302;-121.984;2022-12-18T15:10:23;101040.0;;;19.84;20.84
48644;BME280;34928;37.302;-121.984;2022-12-18T15:20:27;101048.0;;;19.75;20.83
48644;BME280;34928;37.302;-121.984;2022-12-18T15:30:37;101052.0;;;19.54;20.94
48644;BME280;34928;37.302;-121.984;2022-12-18T15:40:42;101052.0;;;19.57;20.85
48644;BME280;34928;37.302;-121.984;2022-12-18T15:50:48;101067.0;;;19.50;20.84
48644;BME280;34928;37.302;-121.984;2022-12-18T16:00:53;101076.0;;;19.44;20.85
48644;BME280;34928;37.302;-121.984;2022-12-18T16:10:59;101091.0;;;19.63;20.81
48644;BME280;34928;37.302;-121.984;2022-12-18T16:21:02;101102.0;;;19.30;20.89
48644;BME280;34928;37.302;-121.984;2022-12-18T16:31:08;101106.0;;;19.53;20.85
48644;BME280;34928;37.302;-121.984;2022-12-18T16:41:19;101108.0;;;19.43;20.93
48644;BME280;34928;37.302;-121.984;2022-12-18T16:51:22;101125.0;;;19.30;21.05
48644;BME280;34928;37.302;-121.984;2022-12-18T17:01:28;101141.0;;;19.12;21.04
48644;BME280;34928;37.302;-121.984;2022-12-18T17:11:34;101147.0;;;19.69;20.99
48644;BME280;34928;37.302;-121.984;2022-12-18T17:21:37;101156.0;;;19.43;21.02
48644;BME280;34928;37.302;-121.984;2022-12-18T17:31:43;101161.0;;;19.38;21.12
48644;BME280;34928;37.302;-121.984;2022-12-18T17:41:47;101167.0;;;19.44;21.08
48644;BME280;34928;37.302;-121.984;2022-12-18T17:51:52;101164.0;;;19.27;21.10
48644;BME280;34928;37.302;-121.984;2022-12-18T18:01:57;101161.0;;;19.29;21.15
48644;BME280;34928;37.302;-121.984;2022-12-18T18:12:02;101153.0;;;19.53;21.24
48644;BME280;34928;37.302;-121.984;2022-12-18T18:22:07;101142.0;;;19.65;21.17
48644;BME280;34928;37.302;-121.984;2022-12-18T18:32:12;101123.0;;;19.72;21.21
48644;BME280;34928;37.302;-121.984;2022-12-18T18:42:17;101123.0;;;19.53;21.23
48644;BME280;34928;37.302;-121.984;2022-12-18T18:52:23;101112.0;;;19.82;21.27
48644;BME280;34928;37.302;-121.984;2022-12-18T19:02:27;101104.0;;;19.67;21.28
48644;BME280;34928;37.302;-121.984;2022-12-18T19:12:33;101099.0;;;19.93;21.19
48644;BME280;34928;37.302;-121.984;2022-12-18T19:22:37;101081.0;;;19.88;21.36
48644;BME280;34928;37.302;-121.984;2022-12-18T19:32:42;101078.0;;;20.07;21.26
48644;BME280;34928;37.302;-121.984;2022-12-18T19:42:47;101088.0;;;20.23;21.28
48644;BME280;34928;37.302;-121.984;2022-12-18T19:52:52;101076.0;;;20.47;21.17
48644;BME280;34928;37.302;-121.984;2022-12-18T20:02:57;101068.0;;;20.39;21.15
48644;BME280;34928;37.302;-121.984;2022-12-18T20:13:02;101070.0;;;20.75;21.05
48644;BME280;34928;37.302;-121.984;2022-12-18T20:23:07;101063.0;;;20.67;21.01
48644;BME280;34928;37.302;-121.984;2022-12-18T20:33:12;101053.0;;;20.83;21.16
48644;BME280;34928;37.302;-121.984;2022-12-18T20:43:17;101037.0;;;20.35;21.26
48644;BME280;34928;37.302;-121.984;2022-12-18T20:53:22;101033.0;;;20.99;21.22
48644;BME280;34928;37.302;-121.984;2022-12-18T21:03:27;101025.0;;;21.05;21.21
48644;BME280;34928;37.302;-121.984;2022-12-18T21:13:32;101027.0;;;21.05;21.33
48644;BME280;34928;37.302;-121.984;2022-12-18T21:23:37;101031.0;;;20.94;21.34
48644;BME280;34928;37.302;-121.984;2022-12-18T21:33:42;101019.0;;;21.03;21.32
48644;BME280;34928;37.302;-121.984;2022-12-18T21:43:47;100999.0;;;21.05;21.34
48644;BME280;34928;37.302;-121.984;2022-12-18T21:53:53;100991.0;;;21.08;21.25
48644;BME280;34928;37.302;-121.984;2022-12-18T22:03:58;100990.0;;;21.10;21.38
48644;BME280;34928;37.302;-121.984;2022-12-18T22:14:02;101004.0;;;21.20;21.46
48644;BME280;34928;37.302;-121.984;2022-12-18T22:24:11;101017.0;;;21.23;21.51
48644;BME280;34928;37.302;-121.984;2022-12-18T22:34:17;101006.0;;;21.18;21.60
48644;BME280;34928;37.302;-121.984;2022-12-18T22:44:22;101008.0;;;21.61;21.62
48644;BME280;34928;37.302;-121.984;2022-12-18T22:54:27;101001.0;;;21.48;21.58
48644;BME280;34928;37.302;-121.984;2022-12-18T23:04:33;101005.0;;;21.55;21.53
48644;BME280;34928;37.302;-121.984;2022-12-18T23:14:37;101011.0;;;21.61;21.63
48644;BME280;34928;37.302;-121.984;2022-12-18T23:24:42;101019.0;;;21.46;21.56
48644;BME280;34928;37.302;-121.984;2022-12-18T23:34:47;101017.0;;;21.77;21.62
48644;BME280;34928;37.302;-121.984;2022-12-18T23:44:52;101022.0;;;21.91;21.60
48644;BME280;34928;37.302;-121.984;2022-12-18T23:54:57;101038.0;;;22.00;21.54
